Terminal Aerodrome Forecast
Issued by NWS Paducah, KY

Home | Current Version | Previous Version | Text Only | Print | Product List | Glossary On
Versions: 1 2 3 4 5 6 7 8 9 10 11 12 13 14
000
FTUS43 KPAH 200500
TAFEVV
TAF
KEVV 200520Z 2006/2106 05004KT P6SM OVC060
     FM201100 04002KT 5SM BR OVC025
     FM201500 04003KT P6SM BKN060
     FM202100 03003KT P6SM BKN130=

USA.gov is the U.S. government's official web portal to all federal, state and local government web resources and services.